createdAt,value
2023-04-01T00:01:18.306Z,43.66
2023-04-01T00:03:47.324Z,43.35
2023-04-01T00:06:17.621Z,43.68
2023-04-01T00:08:46.609Z,44.11
2023-04-01T00:11:15.847Z,44.03
2023-04-01T00:13:44.266Z,43.67
2023-04-01T00:16:21.125Z,43.75
2023-04-01T00:18:51.800Z,43.87
2023-04-01T00:21:22.424Z,44.14
2023-04-01T00:23:52.513Z,44.03
2023-04-01T00:26:23.172Z,43.74
2023-04-01T00:28:52.336Z,43.33
2023-04-01T00:31:21.201Z,43.69
2023-04-01T00:33:49.870Z,43.68
2023-04-01T00:36:21.548Z,43.46
2023-04-01T00:38:49.994Z,43.19
2023-04-01T00:41:20.085Z,43.87
2023-04-01T00:43:52.035Z,43.27
2023-04-01T00:46:21.283Z,43.86
2023-04-01T00:48:57.138Z,43.65
2023-04-01T00:51:31.789Z,43.66
2023-04-01T00:54:03.557Z,43.62
2023-04-01T00:56:53.173Z,43.61
2023-04-01T00:59:26.807Z,43.42
2023-04-01T01:01:55.053Z,43.82
2023-04-01T01:04:32.715Z,43.70
2023-04-01T01:07:32.976Z,43.62
2023-04-01T01:10:01.241Z,43.78
2023-04-01T01:12:35.423Z,43.84
2023-04-01T01:15:38.647Z,44.09
2023-04-01T01:18:18.908Z,43.90
2023-04-01T01:21:08.570Z,44.26
2023-04-01T01:23:48.509Z,44.12
2023-04-01T01:26:39.066Z,43.86
2023-04-01T01:29:44.517Z,43.75
2023-04-01T01:32:16.938Z,44.29
2023-04-01T01:35:06.486Z,44.56
2023-04-01T01:37:35.512Z,44.84
2023-04-01T01:40:10.978Z,44.24
2023-04-01T01:42:42.747Z,44.86
2023-04-01T01:45:14.538Z,44.50
2023-04-01T01:47:44.179Z,44.72
2023-04-01T01:50:13.828Z,44.79
2023-04-01T01:52:42.070Z,44.82
2023-04-01T01:55:32.023Z,45.17
2023-04-01T01:58:14.188Z,44.85
2023-04-01T02:00:47.274Z,45.15
2023-04-01T02:03:17.513Z,45.24
2023-04-01T02:05:47.291Z,45.54
2023-04-01T02:08:20.534Z,45.59
2023-04-01T02:11:01.973Z,45.63
2023-04-01T02:14:00.152Z,45.89
2023-04-01T02:16:40.920Z,46.15
2023-04-01T02:19:11.073Z,46.11
2023-04-01T02:21:40.718Z,46.48
2023-04-01T02:24:14.250Z,46.14
2023-04-01T02:26:43.069Z,46.30
2023-04-01T02:29:14.100Z,46.56
2023-04-01T02:31:44.417Z,46.39
2023-04-01T02:34:13.148Z,46.66
2023-04-01T02:36:41.701Z,46.65
2023-04-01T02:39:10.592Z,46.95
2023-04-01T02:41:45.501Z,46.74
2023-04-01T02:44:15.400Z,47.26
2023-04-01T02:46:44.231Z,47.44
2023-04-01T02:49:12.482Z,47.68
2023-04-01T02:51:40.713Z,47.60
2023-04-01T02:54:08.952Z,47.81
2023-04-01T02:56:37.233Z,47.86
2023-04-01T02:59:05.452Z,48.06
2023-04-01T03:01:33.765Z,47.87
2023-04-01T03:04:02.010Z,48.08
2023-04-01T03:06:30.280Z,48.53
2023-04-01T03:08:58.842Z,47.98
2023-04-01T03:11:28.040Z,48.03
2023-04-01T03:13:56.381Z,48.25
2023-04-01T03:16:24.866Z,48.33
2023-04-01T03:18:54.405Z,48.85
2023-04-01T03:21:24.830Z,48.55
2023-04-01T03:23:53.730Z,48.88
2023-04-01T03:26:23.311Z,48.69
2023-04-01T03:28:51.735Z,48.96
2023-04-01T03:31:21.581Z,49.29
2023-04-01T03:33:50.717Z,49.21
2023-04-01T03:36:19.908Z,48.97
2023-04-01T03:38:48.116Z,49.09
2023-04-01T03:41:18.235Z,49.19
2023-04-01T03:43:47.118Z,49.05
2023-04-01T03:46:20.704Z,49.27
2023-04-01T03:48:48.960Z,49.31
2023-04-01T03:51:17.295Z,49.31
2023-04-01T03:53:45.823Z,49.62
2023-04-01T03:56:14.139Z,49.79
2023-04-01T03:58:42.555Z,49.70
2023-04-01T04:01:22.687Z,50.27
2023-04-01T04:03:52.151Z,50.05
2023-04-01T04:06:21.547Z,49.97
2023-04-01T04:08:49.796Z,49.69
2023-04-01T04:11:18.655Z,50.39
2023-04-01T04:13:47.068Z,50.34
2023-04-01T04:16:15.793Z,50.55
2023-04-01T04:18:44.342Z,50.34
2023-04-01T04:21:16.683Z,50.42
2023-04-01T04:23:45.916Z,50.25
2023-04-01T04:26:17.225Z,50.27
2023-04-01T04:28:45.710Z,50.40
2023-04-01T04:31:20.412Z,50.54
2023-04-01T04:33:48.315Z,50.87
2023-04-01T04:36:17.042Z,50.58
2023-04-01T04:38:45.698Z,50.89
2023-04-01T04:41:16.152Z,50.83
2023-04-01T04:43:50.186Z,51.05
2023-04-01T04:46:18.413Z,51.05
2023-04-01T04:48:46.649Z,51.40
2023-04-01T04:51:19.007Z,51.56
2023-04-01T04:53:49.584Z,51.42
2023-04-01T04:56:23.633Z,51.50
2023-04-01T04:58:51.943Z,51.61
2023-04-01T05:01:20.867Z,51.95
2023-04-01T05:03:49.142Z,52.36
2023-04-01T05:06:18.386Z,52.40
2023-04-01T05:08:47.652Z,52.50
2023-04-01T05:11:19.211Z,52.64
2023-04-01T05:13:48.380Z,53.08
2023-04-01T05:16:20.262Z,53.02
2023-04-01T05:18:49.431Z,52.90
2023-04-01T05:21:18.208Z,53.43
2023-04-01T05:23:46.737Z,53.28
2023-04-01T05:26:16.652Z,53.55
2023-04-01T05:28:45.339Z,53.61
2023-04-01T05:31:13.610Z,53.56
2023-04-01T05:33:42.084Z,53.93
2023-04-01T05:36:13.076Z,53.97
2023-04-01T05:38:42.266Z,54.03
2023-04-01T05:41:10.975Z,54.33
2023-04-01T05:43:39.563Z,54.41
2023-04-01T05:46:08.143Z,54.77
2023-04-01T05:48:36.954Z,54.49
2023-04-01T05:51:05.617Z,54.89
2023-04-01T05:53:33.994Z,55.08
2023-04-01T05:56:06.160Z,54.89
2023-04-01T05:58:34.484Z,55.17
2023-04-01T06:01:11.392Z,55.06
2023-04-01T06:03:42.435Z,55.38
2023-04-01T06:06:28.278Z,55.55
2023-04-01T06:09:00.052Z,55.61
2023-04-01T06:11:38.733Z,55.68
2023-04-01T06:14:51.428Z,56.04
2023-04-01T06:17:22.963Z,55.89
2023-04-01T06:20:07.286Z,56.36
2023-04-01T06:23:03.161Z,56.22
2023-04-01T06:25:43.983Z,56.32
2023-04-01T06:28:39.271Z,56.65
2023-04-01T06:31:34.218Z,56.78
2023-04-01T06:34:39.548Z,56.76
2023-04-01T06:37:17.284Z,56.97
2023-04-01T06:40:00.060Z,57.24
2023-04-01T06:42:55.825Z,57.56
2023-04-01T06:45:39.100Z,57.25
2023-04-01T06:48:36.838Z,57.73
2023-04-01T06:51:22.631Z,57.86
2023-04-01T06:54:03.434Z,57.63
2023-04-01T06:56:34.258Z,57.88
2023-04-01T06:59:30.035Z,58.10
2023-04-01T07:02:22.188Z,58.08
2023-04-01T07:04:54.935Z,58.18
2023-04-01T07:07:44.115Z,58.33
2023-04-01T07:10:19.174Z,58.59
2023-04-01T07:12:55.280Z,58.63
2023-04-01T07:15:37.448Z,58.87
2023-04-01T07:18:13.337Z,58.66
2023-04-01T07:20:41.873Z,58.78
2023-04-01T07:23:29.245Z,59.12
2023-04-01T07:26:25.464Z,58.89
2023-04-01T07:28:55.624Z,59.10
2023-04-01T07:31:26.620Z,59.19
2023-04-01T07:34:11.447Z,59.03
2023-04-01T07:36:47.460Z,59.11
2023-04-01T07:39:29.445Z,59.53
2023-04-01T07:42:32.813Z,59.28
2023-04-01T07:45:28.701Z,59.33
2023-04-01T07:48:33.590Z,59.68
2023-04-01T07:51:13.345Z,59.79
2023-04-01T07:54:10.459Z,60.02
2023-04-01T07:56:41.500Z,59.81
2023-04-01T07:59:35.874Z,59.79
2023-04-01T08:02:12.698Z,60.06
2023-04-01T08:05:01.424Z,60.31
2023-04-01T08:07:40.116Z,60.18
2023-04-01T08:10:37.166Z,60.19
2023-04-01T08:13:13.796Z,60.36
2023-04-01T08:16:00.257Z,60.27
2023-04-01T08:19:03.554Z,60.67
2023-04-01T08:21:44.503Z,60.31
2023-04-01T08:24:52.003Z,60.68
2023-04-01T08:27:31.306Z,60.82
2023-04-01T08:30:25.059Z,61.22
2023-04-01T08:33:02.391Z,61.03
2023-04-01T08:36:08.468Z,60.89
2023-04-01T08:38:46.907Z,61.08
2023-04-01T08:41:36.229Z,61.48
2023-04-01T08:44:21.413Z,60.88
2023-04-01T08:46:59.205Z,61.83
2023-04-01T08:49:45.818Z,61.23
2023-04-01T08:52:34.080Z,61.54
2023-04-01T08:55:25.040Z,61.65
2023-04-01T08:58:08.054Z,61.77
2023-04-01T09:00:39.043Z,61.83
2023-04-01T09:03:28.370Z,61.87
2023-04-01T09:05:59.425Z,61.63
2023-04-01T09:08:59.325Z,61.71
2023-04-01T09:12:02.836Z,62.19
2023-04-01T09:15:05.342Z,62.51
2023-04-01T09:17:54.298Z,62.31
2023-04-01T09:20:47.800Z,62.52
2023-04-01T09:23:39.644Z,62.17
2023-04-01T09:26:14.113Z,62.34
2023-04-01T09:28:55.283Z,62.52
2023-04-01T09:31:35.136Z,62.69
2023-04-01T09:34:41.304Z,62.63
2023-04-01T09:37:12.432Z,62.73
2023-04-01T09:39:49.430Z,62.88
2023-04-01T09:42:28.871Z,62.80
2023-04-01T09:45:11.119Z,63.02
2023-04-01T09:47:48.204Z,62.61
2023-04-01T09:50:22.340Z,63.51
2023-04-01T09:52:59.307Z,63.19
2023-04-01T09:55:47.605Z,63.15
2023-04-01T09:58:43.939Z,62.77
2023-04-01T10:01:27.301Z,63.35
2023-04-01T10:04:32.433Z,63.31
2023-04-01T10:07:24.969Z,63.34
2023-04-01T10:10:14.460Z,63.29
2023-04-01T10:12:59.858Z,63.03
2023-04-01T10:15:52.931Z,63.33
2023-04-01T10:18:52.076Z,62.99
2023-04-01T10:21:44.488Z,63.72
2023-04-01T10:24:42.129Z,63.60
2023-04-01T10:27:46.741Z,63.79
2023-04-01T10:31:09.118Z,64.01
2023-04-01T10:33:58.855Z,63.93
2023-04-01T10:36:47.894Z,63.17
2023-04-01T10:39:18.928Z,64.01
2023-04-01T10:42:17.692Z,63.48
2023-04-01T10:44:51.805Z,63.31
2023-04-01T10:47:59.981Z,63.74
2023-04-01T10:51:03.826Z,63.90
2023-04-01T10:53:51.765Z,63.96
2023-04-01T10:56:56.407Z,63.59
2023-04-01T11:00:03.076Z,64.16
2023-04-01T11:03:08.231Z,64.06
2023-04-01T11:06:10.012Z,63.68
2023-04-01T11:09:11.900Z,64.41
2023-04-01T11:11:55.361Z,63.68
2023-04-01T11:14:41.579Z,64.73
2023-04-01T11:17:34.290Z,64.53
2023-04-01T11:20:45.477Z,64.05
2023-04-01T11:23:31.951Z,64.54
2023-04-01T11:26:23.907Z,64.11
2023-04-01T11:29:10.662Z,64.39
2023-04-01T11:32:13.294Z,64.95
2023-04-01T11:34:41.416Z,64.46
2023-04-01T11:37:31.826Z,63.95
2023-04-01T11:40:21.100Z,64.52
2023-04-01T11:42:55.208Z,65.07
2023-04-01T11:45:30.603Z,65.07
2023-04-01T11:48:35.907Z,65.22
2023-04-01T11:51:28.601Z,64.56
2023-04-01T11:54:27.422Z,65.06
2023-04-01T11:57:27.789Z,65.25
2023-04-01T12:00:17.537Z,64.64
2023-04-01T12:03:12.515Z,65.03
2023-04-01T12:05:46.913Z,65.14
2023-04-01T12:08:45.409Z,65.53
2023-04-01T12:11:37.042Z,64.72
2023-04-01T12:14:32.476Z,65.21
2023-04-01T12:17:23.181Z,65.82
2023-04-01T12:20:01.948Z,65.73
2023-04-01T12:22:33.882Z,64.86
2023-04-01T12:25:38.527Z,65.56
2023-04-01T12:28:43.849Z,65.84
2023-04-01T12:31:40.442Z,66.02
2023-04-01T12:34:30.959Z,65.45
2023-04-01T12:37:30.220Z,65.43
2023-04-01T12:39:58.369Z,65.87
2023-04-01T12:42:46.963Z,65.27
2023-04-01T12:45:31.743Z,65.67
2023-04-01T12:48:38.446Z,66.24
2023-04-01T12:51:09.593Z,65.54
2023-04-01T12:53:55.212Z,65.81
2023-04-01T12:56:53.574Z,65.79
2023-04-01T12:59:30.674Z,65.85
2023-04-01T13:02:35.869Z,65.57
2023-04-01T13:05:18.650Z,66.05
2023-04-01T13:08:09.076Z,66.39
2023-04-01T13:11:01.678Z,65.98
2023-04-01T13:13:54.418Z,65.62
2023-04-01T13:16:31.728Z,65.82
2023-04-01T13:19:31.864Z,65.81
2023-04-01T13:22:11.720Z,66.12
2023-04-01T13:24:42.729Z,66.40
2023-04-01T13:27:13.796Z,66.78
2023-04-01T13:30:11.133Z,66.47
2023-04-01T13:32:57.096Z,66.19
2023-04-01T13:35:46.626Z,65.76
2023-04-01T13:38:45.727Z,66.56
2023-04-01T13:41:51.637Z,66.86
2023-04-01T13:44:33.163Z,66.23
2023-04-01T13:47:37.582Z,66.62
2023-04-01T13:50:40.798Z,66.42
2023-04-01T13:53:11.777Z,66.75
2023-04-01T13:56:07.578Z,66.80
2023-04-01T13:58:54.065Z,66.82
2023-04-01T14:01:43.123Z,66.47
2023-04-01T14:04:26.820Z,66.50
2023-04-01T14:07:18.105Z,66.52
2023-04-01T14:09:58.143Z,66.85
2023-04-01T14:12:41.988Z,66.86
2023-04-01T14:15:25.215Z,67.36
2023-04-01T14:18:11.340Z,66.96
2023-04-01T14:20:53.774Z,66.73
2023-04-01T14:23:53.921Z,66.97
2023-04-01T14:26:43.985Z,66.61
2023-04-01T14:29:33.155Z,66.74
2023-04-01T14:32:42.732Z,67.30
2023-04-01T14:35:14.009Z,66.44
2023-04-01T14:38:00.400Z,66.34
2023-04-01T14:41:00.862Z,66.33
2023-04-01T14:43:57.752Z,66.11
2023-04-01T14:46:45.757Z,66.80
2023-04-01T14:49:40.065Z,65.89
2023-04-01T14:52:12.795Z,66.11
2023-04-01T14:54:45.684Z,65.96
2023-04-01T14:57:25.715Z,66.05
2023-04-01T14:59:55.978Z,66.32
2023-04-01T15:02:32.895Z,65.74
2023-04-01T15:05:36.001Z,66.08
2023-04-01T15:08:34.883Z,65.82
2023-04-01T15:11:26.378Z,65.46
2023-04-01T15:14:09.504Z,65.07
2023-04-01T15:17:28.587Z,65.01
2023-04-01T15:20:25.951Z,64.90
2023-04-01T15:23:09.043Z,64.44
2023-04-01T15:26:04.837Z,64.31
2023-04-01T15:28:47.296Z,64.44
2023-04-01T15:31:30.405Z,63.96
2023-04-01T15:34:07.717Z,63.95
2023-04-01T15:36:54.165Z,63.42
2023-04-01T15:39:37.296Z,63.41
2023-04-01T15:42:31.317Z,63.24
2023-04-01T15:45:27.779Z,63.10
2023-04-01T15:48:14.617Z,62.96
2023-04-01T15:50:55.414Z,62.73
2023-04-01T15:53:34.275Z,62.89
2023-04-01T15:56:32.739Z,62.74
2023-04-01T15:59:23.908Z,62.41
2023-04-01T16:02:19.009Z,62.09
2023-04-01T16:05:11.669Z,62.02
2023-04-01T16:08:17.041Z,62.08
2023-04-01T16:11:23.426Z,61.83
2023-04-01T16:14:07.200Z,61.50
2023-04-01T16:16:56.185Z,61.18
2023-04-01T16:19:53.421Z,61.18
2023-04-01T16:22:56.307Z,61.25
2023-04-01T16:25:44.028Z,61.16
2023-04-01T16:28:18.183Z,60.84
2023-04-01T16:30:52.764Z,61.00
2023-04-01T16:33:42.314Z,60.83
2023-04-01T16:36:13.661Z,60.62
2023-04-01T16:39:25.309Z,60.68
2023-04-01T16:42:08.530Z,60.30
2023-04-01T16:45:03.164Z,60.13
2023-04-01T16:47:55.270Z,59.52
2023-04-01T16:50:41.719Z,59.68
2023-04-01T16:53:16.724Z,59.41
2023-04-01T16:56:07.112Z,58.95
2023-04-01T16:58:58.821Z,58.96
2023-04-01T17:01:52.333Z,58.43
2023-04-01T17:04:29.560Z,58.02
2023-04-01T17:07:21.592Z,57.48
2023-04-01T17:10:22.224Z,56.72
2023-04-01T17:13:25.664Z,56.89
2023-04-01T17:16:01.502Z,56.34
2023-04-01T17:19:06.936Z,56.28
2023-04-01T17:21:37.997Z,56.48
2023-04-01T17:24:18.030Z,56.20
2023-04-01T17:26:57.145Z,55.25
2023-04-01T17:29:31.568Z,55.24
2023-04-01T17:32:30.574Z,54.84
2023-04-01T17:35:05.969Z,55.01
2023-04-01T17:37:56.940Z,54.81
2023-04-01T17:41:09.316Z,54.48
2023-04-01T17:43:40.654Z,54.49
2023-04-01T17:46:14.807Z,54.15
2023-04-01T17:49:04.202Z,53.35
2023-04-01T17:51:35.348Z,52.92
2023-04-01T17:54:37.884Z,53.03
2023-04-01T17:57:24.821Z,52.30
2023-04-01T18:00:14.553Z,52.08
2023-04-01T18:02:57.279Z,51.92
2023-04-01T18:05:25.528Z,51.80
2023-04-01T18:07:59.375Z,51.19
2023-04-01T18:10:51.506Z,51.00
2023-04-01T18:13:39.202Z,50.86
2023-04-01T18:16:16.199Z,51.28
2023-04-01T18:19:07.814Z,50.59
2023-04-01T18:21:45.905Z,50.74
2023-04-01T18:24:18.615Z,50.43
2023-04-01T18:27:13.152Z,50.18
2023-04-01T18:30:13.696Z,49.84
2023-04-01T18:33:11.741Z,49.58
2023-04-01T18:35:43.052Z,50.10
2023-04-01T18:38:18.309Z,49.57
2023-04-01T18:41:20.855Z,49.05
2023-04-01T18:44:14.340Z,49.02
2023-04-01T18:46:54.944Z,49.48
2023-04-01T18:49:45.614Z,49.14
2023-04-01T18:52:34.911Z,48.51
2023-04-01T18:55:03.057Z,48.00
2023-04-01T18:58:08.527Z,47.46
2023-04-01T19:00:46.928Z,47.66
2023-04-01T19:03:34.008Z,47.88
2023-04-01T19:06:11.293Z,47.84
2023-04-01T19:08:43.244Z,47.61
2023-04-01T19:11:51.516Z,46.81
2023-04-01T19:14:31.641Z,47.31
2023-04-01T19:17:39.263Z,47.09
2023-04-01T19:20:48.479Z,46.26
2023-04-01T19:23:41.374Z,46.57
2023-04-01T19:26:36.487Z,45.25
2023-04-01T19:29:15.805Z,45.69
2023-04-01T19:32:01.796Z,45.67
2023-04-01T19:35:09.421Z,45.18
2023-04-01T19:38:01.735Z,44.97
2023-04-01T19:40:40.919Z,44.90
2023-04-01T19:43:17.686Z,45.03
2023-04-01T19:45:53.629Z,44.26
2023-04-01T19:48:46.968Z,42.91
2023-04-01T19:51:27.246Z,43.55
2023-04-01T19:53:56.192Z,43.38
2023-04-01T19:56:50.650Z,42.99
2023-04-01T19:59:25.978Z,42.57
2023-04-01T20:02:34.681Z,42.98
2023-04-01T20:05:21.244Z,43.20
2023-04-01T20:07:58.923Z,43.06
2023-04-01T20:10:45.084Z,42.54
2023-04-01T20:13:23.525Z,42.53
2023-04-01T20:16:03.451Z,42.54
2023-04-01T20:19:09.424Z,41.57
2023-04-01T20:21:45.779Z,41.69
2023-04-01T20:24:16.865Z,41.74
2023-04-01T20:27:17.383Z,41.80
2023-04-01T20:30:22.773Z,41.52
2023-04-01T20:33:45.437Z,40.47
2023-04-01T20:36:23.999Z,40.30
2023-04-01T20:39:10.781Z,40.68
2023-04-01T20:41:48.205Z,40.59
2023-04-01T20:44:33.568Z,40.59
2023-04-01T20:47:19.780Z,40.15
2023-04-01T20:50:08.877Z,39.85
2023-04-01T20:53:04.432Z,40.00
2023-04-01T20:55:57.462Z,40.38
2023-04-01T20:58:45.836Z,39.92
2023-04-01T21:01:36.844Z,39.37
2023-04-01T21:04:32.046Z,39.25
2023-04-01T21:07:13.147Z,39.71
2023-04-01T21:10:10.121Z,39.51
2023-04-01T21:12:50.338Z,39.17
2023-04-01T21:15:24.724Z,39.01
2023-04-01T21:18:30.671Z,39.60
2023-04-01T21:21:40.251Z,39.05
2023-04-01T21:24:46.577Z,38.88
2023-04-01T21:27:41.381Z,38.78
2023-04-01T21:30:46.465Z,38.91
2023-04-01T21:33:17.541Z,38.85
2023-04-01T21:36:15.824Z,38.77
2023-04-01T21:39:09.397Z,38.33
2023-04-01T21:42:01.585Z,38.66
2023-04-01T21:44:57.589Z,38.54
2023-04-01T21:48:02.982Z,37.75
2023-04-01T21:50:44.389Z,38.50
2023-04-01T21:54:01.055Z,38.08
2023-04-01T21:56:29.235Z,37.93
2023-04-01T21:59:23.354Z,38.29
2023-04-01T22:02:22.374Z,37.75
2023-04-01T22:05:09.388Z,38.00
2023-04-01T22:08:09.476Z,38.15
2023-04-01T22:10:47.840Z,38.07
2023-04-01T22:13:21.088Z,37.90
2023-04-01T22:16:11.245Z,38.12
2023-04-01T22:19:02.326Z,37.83
2023-04-01T22:21:53.692Z,38.28
2023-04-01T22:24:50.885Z,38.39
2023-04-01T22:27:36.703Z,38.46
2023-04-01T22:30:27.827Z,38.45
2023-04-01T22:33:11.456Z,38.14
2023-04-01T22:36:14.803Z,37.82
2023-04-01T22:39:24.470Z,38.42
2023-04-01T22:41:58.804Z,37.84
2023-04-01T22:44:45.924Z,38.52
2023-04-01T22:47:22.506Z,38.41
2023-04-01T22:49:56.913Z,39.10
2023-04-01T22:52:24.699Z,38.79
2023-04-01T22:54:57.530Z,38.78
2023-04-01T22:57:44.081Z,39.10
2023-04-01T23:00:33.639Z,39.93
2023-04-01T23:03:17.890Z,40.61
2023-04-01T23:05:54.838Z,40.55
2023-04-01T23:08:45.269Z,40.95
2023-04-01T23:11:41.899Z,40.63
2023-04-01T23:14:35.713Z,41.16
2023-04-01T23:17:37.573Z,41.39
2023-04-01T23:20:51.313Z,41.74
2023-04-01T23:23:30.697Z,41.91
2023-04-01T23:26:13.158Z,42.17
2023-04-01T23:28:50.039Z,42.32
2023-04-01T23:31:36.841Z,42.33
2023-04-01T23:34:15.959Z,42.53
2023-04-01T23:36:54.134Z,42.75
2023-04-01T23:39:30.663Z,42.53
2023-04-01T23:42:16.439Z,42.64
2023-04-01T23:44:46.002Z,42.64
2023-04-01T23:47:34.972Z,42.79
2023-04-01T23:50:13.641Z,43.16
2023-04-01T23:52:46.159Z,42.76
2023-04-01T23:55:27.178Z,42.80
2023-04-01T23:58:18.594Z,43.09
